Time;durP1;ratioP1;P1;durP2;ratioP2;P2;SDS_P1;SDS_P2;PMS_P1;PMS_P2;Temp;Humidity;BMP_temperature;BMP_pressure;BME280_temperature;BME280_humidity;BME280_pressure;Samples;Min_cycle;Max_cycle;Signal;HPM_P1;HPM_P2
2021/09/06 00:01:15;;;;;;;22.15;12.68;;;18.90;99.90;;;;;;5011837;28;20803;-84
2021/09/06 00:03:40;;;;;;;23.80;12.77;;;18.80;99.90;;;;;;5011713;28;20226;-84
2021/09/06 00:06:06;;;;;;;22.33;13.15;;;18.90;99.90;;;;;;5013085;28;20164;-83
2021/09/06 00:08:31;;;;;;;15.93;12.35;;;18.80;99.90;;;;;;5013091;28;20708;-83
2021/09/06 00:11:05;;;;;;;19.02;13.38;;;18.80;99.90;;;;;;5011748;28;20203;-83
2021/09/06 00:13:32;;;;;;;19.40;12.15;;;18.80;99.90;;;;;;5013185;28;20167;-83
2021/09/06 00:15:58;;;;;;;19.00;12.27;;;18.60;99.90;;;;;;5011614;28;20612;-83
2021/09/06 00:18:25;;;;;;;18.25;13.30;;;18.70;99.90;;;;;;5012841;28;20229;-83
2021/09/06 00:20:52;;;;;;;18.35;13.05;;;18.90;99.90;;;;;;5011310;28;20234;-83
2021/09/06 00:23:17;;;;;;;17.08;13.90;;;18.80;99.90;;;;;;5011717;28;20222;-82
2021/09/06 00:25:43;;;;;;;18.52;12.88;;;18.70;99.90;;;;;;5011573;28;20187;-83
2021/09/06 00:28:09;;;;;;;30.48;13.65;;;18.80;99.90;;;;;;5010604;28;20593;-85
2021/09/06 00:30:35;;;;;;;19.15;12.85;;;19.00;99.90;;;;;;5010703;28;20173;-82
2021/09/06 00:33:01;;;;;;;16.02;12.40;;;18.80;99.90;;;;;;5010297;28;20169;-82
2021/09/06 00:35:26;;;;;;;23.80;13.52;;;18.70;99.90;;;;;;5010487;28;20164;-83
2021/09/06 00:37:52;;;;;;;18.95;12.45;;;18.60;99.90;;;;;;5010626;28;20189;-85
2021/09/06 00:40:18;;;;;;;16.95;12.13;;;18.60;99.90;;;;;;5010665;28;20249;-83
2021/09/06 00:42:43;;;;;;;18.77;13.10;;;18.60;99.90;;;;;;5010735;28;20231;-82
2021/09/06 00:45:10;;;;;;;20.15;12.82;;;18.60;99.90;;;;;;5010383;28;20169;-84
2021/09/06 00:47:37;;;;;;;16.65;12.23;;;18.50;99.90;;;;;;5009663;28;20211;-82
2021/09/06 00:50:06;;;;;;;17.98;12.35;;;18.50;99.90;;;;;;5010090;28;20172;-83
2021/09/06 00:52:34;;;;;;;19.25;13.98;;;18.40;99.90;;;;;;5010359;28;20168;-83
2021/09/06 00:55:00;;;;;;;18.50;12.52;;;18.30;99.90;;;;;;5010141;28;20191;-83
2021/09/06 00:57:26;;;;;;;20.48;13.32;;;18.30;99.90;;;;;;5010048;28;20671;-82
2021/09/06 00:59:51;;;;;;;19.08;12.48;;;18.10;99.90;;;;;;5011892;28;20559;-83
2021/09/06 01:02:17;;;;;;;23.23;13.02;;;18.10;99.90;;;;;;5010126;28;20640;-84
2021/09/06 01:04:42;;;;;;;19.15;13.38;;;18.10;99.90;;;;;;5013803;28;20176;-84
2021/09/06 01:07:09;;;;;;;28.02;14.00;;;18.20;99.90;;;;;;5014531;28;20702;-84
2021/09/06 01:09:35;;;;;;;21.60;14.32;;;18.20;99.90;;;;;;5015201;28;20173;-84
2021/09/06 01:12:00;;;;;;;17.88;12.98;;;18.10;99.90;;;;;;5014670;28;20211;-83
2021/09/06 01:14:26;;;;;;;18.25;13.15;;;18.10;99.90;;;;;;5013271;28;20633;-82
2021/09/06 01:16:52;;;;;;;25.00;13.90;;;18.10;99.90;;;;;;5014396;28;20252;-84
2021/09/06 01:19:18;;;;;;;22.00;14.00;;;18.10;99.90;;;;;;5015059;28;20200;-83
2021/09/06 01:21:44;;;;;;;16.65;13.25;;;18.10;99.90;;;;;;5014396;28;20204;-83
2021/09/06 01:24:09;;;;;;;19.60;13.18;;;18.00;99.90;;;;;;5013131;28;20169;-83
2021/09/06 01:26:35;;;;;;;21.42;12.90;;;17.90;99.90;;;;;;4975726;28;1130028;-83
2021/09/06 01:29:01;;;;;;;17.70;13.43;;;17.90;99.90;;;;;;5015417;28;20223;-83
2021/09/06 01:31:26;;;;;;;24.40;14.00;;;18.10;99.90;;;;;;5013434;28;20231;-83
2021/09/06 01:33:52;;;;;;;21.70;14.23;;;18.10;99.90;;;;;;5013965;28;20165;-83
2021/09/06 01:36:18;;;;;;;22.58;14.23;;;18.10;99.90;;;;;;5015488;28;20605;-83
2021/09/06 01:38:43;;;;;;;23.25;13.40;;;18.00;99.90;;;;;;5014025;28;20203;-83
2021/09/06 01:41:09;;;;;;;20.42;13.85;;;17.90;99.90;;;;;;5013902;28;20270;-82
2021/09/06 01:43:35;;;;;;;21.85;14.48;;;18.00;99.90;;;;;;5013965;28;20165;-83
2021/09/06 01:46:00;;;;;;;21.85;14.73;;;18.00;99.90;;;;;;5014110;28;20267;-82
2021/09/06 01:48:26;;;;;;;26.08;14.73;;;17.90;99.90;;;;;;5014085;28;20195;-83
2021/09/06 01:50:52;;;;;;;14.60;13.00;;;17.80;99.90;;;;;;5014004;28;20215;-83
2021/09/06 01:53:17;;;;;;;18.70;13.15;;;17.70;99.90;;;;;;5013910;28;20177;-86
2021/09/06 01:55:43;;;;;;;22.85;14.55;;;17.80;99.90;;;;;;5014222;28;20191;-83
2021/09/06 01:58:08;;;;;;;24.98;14.45;;;17.60;99.90;;;;;;5015208;28;20196;-83
2021/09/06 02:00:34;;;;;;;27.98;13.70;;;17.60;99.90;;;;;;5013916;28;20204;-83
2021/09/06 02:03:00;;;;;;;18.98;15.13;;;17.60;99.90;;;;;;5013666;28;20169;-83
2021/09/06 02:05:25;;;;;;;22.25;15.13;;;17.60;99.90;;;;;;5015054;28;20184;-82
2021/09/06 02:07:51;;;;;;;22.20;15.05;;;17.60;99.90;;;;;;5013505;28;20184;-83
2021/09/06 02:10:18;;;;;;;25.20;15.70;;;17.80;99.90;;;;;;5013742;28;20212;-83
2021/09/06 02:12:43;;;;;;;28.73;15.15;;;17.80;99.90;;;;;;5013880;28;20164;-83
2021/09/06 02:15:10;;;;;;;23.85;15.20;;;17.60;99.90;;;;;;5013522;28;20176;-83
2021/09/06 02:17:35;;;;;;;20.92;15.02;;;17.70;99.90;;;;;;5013551;28;20287;-83
2021/09/06 02:20:01;;;;;;;30.27;16.48;;;17.70;99.90;;;;;;5014891;28;20206;-83
2021/09/06 02:22:26;;;;;;;24.10;14.73;;;17.80;99.90;;;;;;5014723;28;20203;-83
2021/09/06 02:24:52;;;;;;;25.80;15.95;;;17.60;99.90;;;;;;5013627;28;20218;-83
2021/09/06 02:27:18;;;;;;;19.50;14.82;;;17.60;99.90;;;;;;5014529;28;20234;-83
2021/09/06 02:29:44;;;;;;;25.05;16.35;;;17.70;99.90;;;;;;5013320;28;20172;-83
2021/09/06 02:32:10;;;;;;;24.15;15.38;;;17.60;99.90;;;;;;5013269;28;20169;-83
2021/09/06 02:34:35;;;;;;;21.63;15.30;;;17.40;99.90;;;;;;5013262;28;20177;-83
2021/09/06 02:37:01;;;;;;;29.63;16.83;;;17.60;99.90;;;;;;5013185;28;20169;-83
2021/09/06 02:39:27;;;;;;;24.25;15.73;;;17.60;99.90;;;;;;5014428;28;20758;-83
2021/09/06 02:41:58;;;;;;;25.27;14.13;;;17.60;99.90;;;;;;5013113;28;20291;-83
2021/09/06 02:44:25;;;;;;;26.23;16.25;;;17.70;99.90;;;;;;5013257;28;20187;-83
2021/09/06 02:46:51;;;;;;;23.23;16.15;;;17.60;99.90;;;;;;5012990;28;20180;-82
2021/09/06 02:49:16;;;;;;;25.65;15.63;;;17.50;99.90;;;;;;5013065;28;20194;-84
2021/09/06 02:51:42;;;;;;;28.05;16.60;;;17.50;99.90;;;;;;5014250;28;20651;-83
2021/09/06 02:54:07;;;;;;;26.95;14.82;;;17.60;99.90;;;;;;5012842;28;20275;-83
2021/09/06 02:56:33;;;;;;;25.45;16.48;;;17.50;99.90;;;;;;5012581;28;20177;-83
2021/09/06 02:58:59;;;;;;;26.75;16.67;;;17.50;99.90;;;;;;5012587;28;20199;-83
2021/09/06 03:01:24;;;;;;;24.95;15.90;;;17.40;99.90;;;;;;5012575;28;20278;-82
2021/09/06 03:03:50;;;;;;;25.42;16.45;;;17.40;99.90;;;;;;5012772;28;20629;-82
2021/09/06 03:06:15;;;;;;;27.30;15.88;;;17.40;99.90;;;;;;5012679;28;20191;-82
2021/09/06 03:08:41;;;;;;;25.73;15.52;;;17.40;99.90;;;;;;5012529;28;20330;-83
2021/09/06 03:11:07;;;;;;;26.63;14.90;;;17.50;99.90;;;;;;5012511;28;20172;-83
2021/09/06 03:13:32;;;;;;;25.38;15.25;;;17.40;99.90;;;;;;5012519;28;20194;-82
2021/09/06 03:15:58;;;;;;;20.77;15.32;;;17.30;99.90;;;;;;5012332;28;20183;-82
2021/09/06 03:18:23;;;;;;;21.92;14.90;;;17.10;99.90;;;;;;5012463;28;20191;-83
2021/09/06 03:20:49;;;;;;;32.83;16.77;;;17.20;99.90;;;;;;5013577;28;20251;-83
2021/09/06 03:23:15;;;;;;;27.30;15.43;;;17.20;99.90;;;;;;5012567;28;20193;-83
2021/09/06 03:25:40;;;;;;;29.67;16.52;;;17.20;99.90;;;;;;5012155;28;20234;-84
2021/09/06 03:28:06;;;;;;;27.65;16.75;;;17.30;99.90;;;;;;5013413;28;20254;-83
2021/09/06 03:30:32;;;;;;;25.55;16.05;;;17.30;99.90;;;;;;5012108;28;20633;-85
2021/09/06 03:32:57;;;;;;;28.42;16.33;;;17.10;99.90;;;;;;5012053;28;20168;-83
2021/09/06 03:35:23;;;;;;;20.65;15.02;;;17.20;99.90;;;;;;5013453;28;20223;-83
2021/09/06 03:37:49;;;;;;;23.88;16.80;;;17.20;99.90;;;;;;5012149;28;20243;-83
2021/09/06 03:40:14;;;;;;;24.98;16.42;;;17.20;99.90;;;;;;5011964;28;20219;-83
2021/09/06 03:42:40;;;;;;;26.55;17.08;;;17.00;99.90;;;;;;5013308;28;20167;-83
2021/09/06 03:45:06;;;;;;;27.63;16.63;;;17.10;99.90;;;;;;5012031;28;20249;-83
2021/09/06 03:47:32;;;;;;;30.73;17.27;;;17.00;99.90;;;;;;5012221;28;20192;-83
2021/09/06 03:49:58;;;;;;;28.52;17.20;;;17.10;99.90;;;;;;5012215;28;20183;-83
2021/09/06 03:52:24;;;;;;;24.75;16.17;;;17.10;99.90;;;;;;5011851;28;20218;-83
2021/09/06 03:54:49;;;;;;;31.73;16.83;;;17.20;99.90;;;;;;5011978;28;20181;-83
2021/09/06 03:57:15;;;;;;;26.00;16.88;;;17.20;99.90;;;;;;5011811;28;20172;-83
2021/09/06 03:59:41;;;;;;;25.23;16.55;;;17.10;99.90;;;;;;5011352;28;20226;-83
2021/09/06 04:02:06;;;;;;;28.70;17.52;;;17.00;99.90;;;;;;5011414;28;20743;-83
2021/09/06 04:04:32;;;;;;;29.60;17.38;;;16.90;99.90;;;;;;5011728;28;20177;-82
2021/09/06 04:06:58;;;;;;;31.10;17.15;;;17.00;99.90;;;;;;5011719;28;20179;-83
2021/09/06 04:09:24;;;;;;;29.83;17.00;;;16.90;99.90;;;;;;5012877;28;20185;-83
2021/09/06 04:11:50;;;;;;;33.30;19.10;;;17.00;99.90;;;;;;5011587;28;20169;-83
2021/09/06 04:14:16;;;;;;;30.67;18.75;;;16.80;99.90;;;;;;5012661;28;20683;-82
2021/09/06 04:16:42;;;;;;;29.98;17.10;;;17.00;99.90;;;;;;5011545;28;20165;-83
2021/09/06 04:19:08;;;;;;;29.20;17.58;;;17.10;99.90;;;;;;5011494;28;20199;-83
2021/09/06 04:21:34;;;;;;;36.17;18.23;;;17.00;99.90;;;;;;5013083;28;20311;-82
2021/09/06 04:23:59;;;;;;;31.98;17.15;;;17.00;99.90;;;;;;5011922;28;20270;-83
2021/09/06 04:26:25;;;;;;;28.38;17.83;;;17.10;99.90;;;;;;5011991;28;20187;-83
2021/09/06 04:28:51;;;;;;;30.70;18.63;;;17.10;99.90;;;;;;5011458;28;20189;-83
2021/09/06 04:31:17;;;;;;;36.83;19.17;;;17.20;99.90;;;;;;5011965;28;20246;-82
2021/09/06 04:33:42;;;;;;;32.15;18.58;;;17.20;99.90;;;;;;5013620;28;20636;-84
2021/09/06 04:36:08;;;;;;;30.83;19.08;;;17.00;99.90;;;;;;5011663;28;20630;-83
2021/09/06 04:38:34;;;;;;;35.13;19.13;;;17.00;99.90;;;;;;5012219;28;20224;-82
2021/09/06 04:40:59;;;;;;;27.52;17.98;;;17.00;99.90;;;;;;5016354;28;20227;-83
2021/09/06 04:43:25;;;;;;;33.72;18.52;;;17.00;99.90;;;;;;5015279;28;20176;-82
2021/09/06 04:45:51;;;;;;;37.05;16.77;;;17.00;99.90;;;;;;5015151;28;20176;-83
2021/09/06 04:48:16;;;;;;;30.92;17.80;;;16.90;99.90;;;;;;5014991;28;20203;-82
2021/09/06 04:50:42;;;;;;;27.67;17.70;;;16.90;99.90;;;;;;5015210;28;20625;-84
2021/09/06 04:53:07;;;;;;;34.00;17.02;;;16.90;99.90;;;;;;5016169;28;20191;-82
2021/09/06 04:55:33;;;;;;;32.30;18.15;;;17.00;99.90;;;;;;5015134;28;20517;-83
2021/09/06 04:57:59;;;;;;;30.67;18.05;;;17.00;99.90;;;;;;5014614;28;20567;-85
2021/09/06 05:00:25;;;;;;;31.83;17.90;;;17.00;99.90;;;;;;5015000;28;20683;-82
2021/09/06 05:02:50;;;;;;;31.15;18.77;;;17.00;99.90;;;;;;5014918;28;20181;-82
2021/09/06 05:05:16;;;;;;;39.85;18.55;;;17.00;99.90;;;;;;5014833;28;20172;-84
2021/09/06 05:07:43;;;;;;;31.55;19.02;;;17.00;99.90;;;;;;5014521;28;20216;-82
2021/09/06 05:10:09;;;;;;;46.10;18.52;;;17.00;99.90;;;;;;5016099;28;20187;-83
2021/09/06 05:12:34;;;;;;;30.55;16.58;;;16.90;99.90;;;;;;5014664;28;20624;-82
2021/09/06 05:15:00;;;;;;;36.92;19.20;;;16.90;99.90;;;;;;5015257;28;20171;-83
2021/09/06 05:17:26;;;;;;;32.47;19.05;;;17.00;99.90;;;;;;5014546;28;20192;-83
2021/09/06 05:19:51;;;;;;;35.55;18.25;;;16.90;99.90;;;;;;5014476;28;20576;-82
2021/09/06 05:22:17;;;;;;;31.63;18.00;;;17.00;99.90;;;;;;5014590;28;20665;-81
2021/09/06 05:24:42;;;;;;;34.70;20.05;;;17.00;99.90;;;;;;5014638;28;20169;-82
2021/09/06 05:27:08;;;;;;;40.70;19.05;;;16.70;99.90;;;;;;5013603;28;20615;-82
2021/09/06 05:29:34;;;;;;;38.92;18.90;;;16.60;99.90;;;;;;5015030;28;20255;-82
2021/09/06 05:32:00;;;;;;;36.53;19.70;;;16.70;99.90;;;;;;5015266;28;20218;-82
2021/09/06 05:34:25;;;;;;;32.08;19.05;;;16.90;99.90;;;;;;5013955;28;20211;-82
2021/09/06 05:36:51;;;;;;;35.97;19.30;;;17.10;99.90;;;;;;5013659;28;20179;-82
2021/09/06 05:39:17;;;;;;;31.42;19.25;;;17.20;99.90;;;;;;5015399;28;20224;-83
2021/09/06 05:41:44;;;;;;;39.95;20.02;;;17.20;99.90;;;;;;5013308;28;20208;-83
2021/09/06 05:44:10;;;;;;;44.05;20.17;;;17.20;99.90;;;;;;5015237;28;20160;-82
2021/09/06 05:46:36;;;;;;;35.13;18.15;;;17.20;99.90;;;;;;5014490;28;20176;-83
2021/09/06 05:49:02;;;;;;;36.88;22.63;;;17.20;99.90;;;;;;5013676;28;20188;-84
2021/09/06 05:51:29;;;;;;;34.58;18.98;;;17.30;99.90;;;;;;5013455;28;20292;-83
2021/09/06 05:53:55;;;;;;;40.15;20.08;;;17.50;99.90;;;;;;5014975;28;20172;-82
2021/09/06 05:56:20;;;;;;;33.55;19.20;;;17.40;99.90;;;;;;5014616;28;20172;-84
2021/09/06 05:58:49;;;;;;;40.45;19.08;;;17.40;99.90;;;;;;5012952;28;20192;-83
2021/09/06 06:01:15;;;;;;;31.98;19.23;;;17.40;99.90;;;;;;5012839;28;20200;-82
2021/09/06 06:03:40;;;;;;;31.05;19.65;;;17.40;99.90;;;;;;5014700;28;20481;-82
2021/09/06 06:06:06;;;;;;;34.35;19.38;;;17.50;99.90;;;;;;5012667;28;20510;-82
2021/09/06 06:08:32;;;;;;;31.80;18.50;;;17.80;99.90;;;;;;5014388;28;20192;-88
2021/09/06 06:10:58;;;;;;;37.00;20.50;;;17.80;99.90;;;;;;5012840;28;20185;-82
2021/09/06 06:13:23;;;;;;;38.85;20.73;;;17.90;99.90;;;;;;5013073;28;20263;-82
2021/09/06 06:15:49;;;;;;;45.60;21.40;;;18.00;99.90;;;;;;5014130;28;20255;-82
2021/09/06 06:18:15;;;;;;;42.85;22.63;;;17.60;99.90;;;;;;5012617;28;20272;-82
2021/09/06 06:20:43;;;;;;;44.13;23.20;;;17.50;99.90;;;;;;5012634;28;20215;-83
2021/09/06 06:23:09;;;;;;;42.03;23.65;;;17.60;99.90;;;;;;5014134;28;20219;-83
2021/09/06 06:25:34;;;;;;;44.50;24.42;;;17.90;99.90;;;;;;5012796;28;20641;-81
2021/09/06 06:28:00;;;;;;;47.28;23.98;;;18.00;99.90;;;;;;5012462;28;20196;-84
2021/09/06 06:30:26;;;;;;;48.47;26.67;;;18.10;99.90;;;;;;5014284;28;20559;-82
2021/09/06 06:32:52;;;;;;;50.95;24.63;;;18.20;99.90;;;;;;5012758;28;20183;-82
2021/09/06 06:35:18;;;;;;;51.40;24.90;;;18.20;99.90;;;;;;5013070;28;20671;-83
2021/09/06 06:37:43;;;;;;;46.97;25.38;;;18.20;99.90;;;;;;5012884;28;20196;-83
2021/09/06 06:40:10;;;;;;;42.08;25.15;;;18.20;99.90;;;;;;5012229;28;20177;-82
2021/09/06 06:42:36;;;;;;;38.08;24.50;;;18.40;99.90;;;;;;5013895;28;20234;-81
2021/09/06 06:45:02;;;;;;;52.00;25.65;;;18.50;99.90;;;;;;5012487;28;20645;-81
2021/09/06 06:47:27;;;;;;;46.95;25.83;;;18.60;99.90;;;;;;5012423;28;20204;-80
2021/09/06 06:49:53;;;;;;;53.85;25.88;;;18.50;99.90;;;;;;5013166;28;20250;-81
2021/09/06 06:52:19;;;;;;;42.72;24.58;;;18.60;99.90;;;;;;5011726;28;20235;-81
2021/09/06 06:54:45;;;;;;;46.50;25.70;;;18.80;99.90;;;;;;5012698;28;20180;-82
2021/09/06 06:57:11;;;;;;;50.92;24.98;;;18.90;99.90;;;;;;5012311;28;20682;-81
2021/09/06 06:59:36;;;;;;;43.58;25.38;;;19.00;99.90;;;;;;5012246;28;20169;-81
2021/09/06 07:02:02;;;;;;;44.20;24.98;;;18.90;99.90;;;;;;5011507;28;20205;-80
2021/09/06 07:04:28;;;;;;;44.20;24.17;;;18.90;99.90;;;;;;5013276;28;20227;-81
2021/09/06 07:06:54;;;;;;;54.53;25.50;;;19.00;99.90;;;;;;5013797;28;20247;-81
2021/09/06 07:09:19;;;;;;;51.70;26.00;;;18.90;99.90;;;;;;5013497;28;20665;-81
2021/09/06 07:11:45;;;;;;;52.70;26.40;;;19.00;99.90;;;;;;5012425;28;20359;-81
2021/09/06 07:14:10;;;;;;;46.42;25.33;;;19.20;99.90;;;;;;5012816;28;20164;-81
2021/09/06 07:16:36;;;;;;;41.55;24.38;;;19.30;99.90;;;;;;5014128;28;20180;-83
2021/09/06 07:19:02;;;;;;;47.50;25.83;;;19.40;99.90;;;;;;5005628;28;20196;-81
2021/09/06 07:21:28;;;;;;;47.75;24.10;;;19.40;99.90;;;;;;5010716;28;20285;-81
2021/09/06 07:23:53;;;;;;;53.92;26.00;;;19.30;99.90;;;;;;5012901;28;20176;-81
2021/09/06 07:26:19;;;;;;;71.97;26.20;;;19.50;99.90;;;;;;5012025;28;20543;-82
2021/09/06 07:28:44;;;;;;;42.63;24.55;;;19.60;99.90;;;;;;5013134;28;20271;-81
2021/09/06 07:31:10;;;;;;;39.47;24.70;;;19.80;99.90;;;;;;5012016;28;20617;-81
2021/09/06 07:33:37;;;;;;;43.90;24.92;;;19.90;99.90;;;;;;5012738;28;20172;-83
2021/09/06 07:36:03;;;;;;;50.83;26.10;;;20.10;99.90;;;;;;5013904;28;20227;-82
2021/09/06 07:38:29;;;;;;;55.60;25.65;;;20.20;99.90;;;;;;5010793;28;20227;-82
2021/09/06 07:40:55;;;;;;;48.03;24.90;;;20.20;99.90;;;;;;5011123;28;20235;-87
2021/09/06 07:43:22;;;;;;;51.35;24.95;;;20.20;99.90;;;;;;5013395;28;20214;-85
2021/09/06 07:45:48;;;;;;;47.90;22.70;;;20.20;99.90;;;;;;5014917;28;20196;-84
2021/09/06 07:48:14;;;;;;;49.78;27.45;;;20.30;99.90;;;;;;5012559;28;20223;-83
2021/09/06 07:50:42;;;;;;;45.20;24.95;;;20.30;99.90;;;;;;5011403;28;20223;-81
2021/09/06 07:53:07;;;;;;;48.85;24.50;;;20.30;99.90;;;;;;5011839;28;20203;-82
2021/09/06 07:55:34;;;;;;;55.05;24.17;;;20.30;99.90;;;;;;5012163;28;20179;-83
2021/09/06 07:58:00;;;;;;;42.78;23.70;;;20.60;99.90;;;;;;5012999;28;20664;-82
2021/09/06 08:00:26;;;;;;;45.85;25.35;;;20.80;99.90;;;;;;5014661;28;20283;-83
2021/09/06 08:02:52;;;;;;;40.08;24.60;;;20.90;99.90;;;;;;5014160;28;20307;-85
2021/09/06 08:05:23;;;;;;;44.30;24.63;;;21.00;99.90;;;;;;5012967;28;20239;-89
2021/09/06 08:07:49;;;;;;;50.38;24.83;;;21.10;99.90;;;;;;5012009;28;20220;-85
2021/09/06 08:10:15;;;;;;;45.78;24.77;;;21.20;99.90;;;;;;5014022;28;20633;-87
2021/09/06 08:12:41;;;;;;;45.30;24.45;;;21.30;99.90;;;;;;5015594;28;20528;-86
2021/09/06 08:15:10;;;;;;;38.53;22.38;;;21.40;99.90;;;;;;5015293;28;20176;-87
2021/09/06 08:17:36;;;;;;;44.45;22.73;;;21.70;99.90;;;;;;5012455;28;20201;-88
2021/09/06 08:20:13;;;;;;;42.60;22.98;;;21.90;99.90;;;;;;5009250;28;20257;-85
2021/09/06 08:22:39;;;;;;;52.22;25.20;;;22.00;99.90;;;;;;5009217;28;20188;-87
2021/09/06 08:25:07;;;;;;;39.65;23.88;;;22.20;99.90;;;;;;5009185;28;20197;-83
2021/09/06 08:27:33;;;;;;;44.85;23.40;;;22.10;99.90;;;;;;5020220;28;20215;-88
2021/09/06 08:29:59;;;;;;;40.38;23.20;;;22.40;99.90;;;;;;5011467;28;20216;-84
2021/09/06 08:32:24;;;;;;;41.97;23.13;;;22.50;99.90;;;;;;5012468;28;20180;-84
2021/09/06 08:34:52;;;;;;;42.35;23.45;;;22.60;99.90;;;;;;5007369;28;20185;-86
2021/09/06 08:37:19;;;;;;;34.63;22.30;;;22.50;99.90;;;;;;4993056;28;20234;-85
2021/09/06 08:39:45;;;;;;;39.95;20.65;;;22.40;99.90;;;;;;5009375;28;20207;-81
2021/09/06 08:42:11;;;;;;;44.90;22.50;;;22.50;99.90;;;;;;5011109;28;20699;-81
2021/09/06 08:44:37;;;;;;;67.72;24.63;;;22.70;99.90;;;;;;5014159;28;20164;-84
2021/09/06 08:47:04;;;;;;;51.30;22.40;;;22.80;99.90;;;;;;5015223;28;20517;-84
2021/09/06 08:49:32;;;;;;;40.55;21.45;;;22.80;99.90;;;;;;5012849;28;20668;-83
2021/09/06 08:51:59;;;;;;;31.45;19.30;;;23.00;99.90;;;;;;5013788;28;20200;-83
2021/09/06 08:54:24;;;;;;;35.95;20.23;;;23.10;99.90;;;;;;5014293;28;20255;-84
2021/09/06 08:56:50;;;;;;;37.80;21.35;;;23.10;99.90;;;;;;5015364;28;20192;-83
2021/09/06 08:59:21;;;;;;;35.67;21.42;;;23.20;99.90;;;;;;5013557;28;20193;-84
2021/09/06 09:01:48;;;;;;;46.72;21.20;;;23.40;99.90;;;;;;5013548;28;20234;-84
2021/09/06 09:04:15;;;;;;;32.15;19.73;;;23.40;99.90;;;;;;5012905;28;20219;-87
2021/09/06 09:06:41;;;;;;;42.50;19.92;;;23.30;99.90;;;;;;5012516;28;20185;-83
2021/09/06 09:09:07;;;;;;;34.53;20.05;;;23.30;99.90;;;;;;5014003;28;20200;-84
2021/09/06 09:11:34;;;;;;;33.67;18.40;;;23.20;99.90;;;;;;5021439;28;20182;-81
2021/09/06 09:14:11;;;;;;;37.67;18.55;;;23.30;99.90;;;;;;5032988;28;20165;-82
2021/09/06 09:16:37;;;;;;;40.58;20.58;;;23.40;99.90;;;;;;5019777;28;20629;-83
2021/09/06 09:19:05;;;;;;;30.63;18.52;;;23.60;99.90;;;;;;5011301;28;20193;-84
2021/09/06 09:21:30;;;;;;;27.58;18.48;;;23.50;99.90;;;;;;5011667;28;20208;-83
2021/09/06 09:24:01;;;;;;;35.42;17.52;;;23.60;99.90;;;;;;5012998;28;20161;-83
2021/09/06 09:26:28;;;;;;;30.65;17.75;;;23.40;99.90;;;;;;5014703;28;20184;-83
2021/09/06 09:28:54;;;;;;;25.88;16.85;;;23.60;99.90;;;;;;5014477;28;20192;-83
2021/09/06 09:31:21;;;;;;;30.60;17.45;;;23.80;99.90;;;;;;5014650;28;20214;-83
2021/09/06 09:33:49;;;;;;;33.30;17.58;;;23.90;99.90;;;;;;5014660;28;20199;-85
2021/09/06 09:36:31;;;;;;;41.70;17.58;;;24.00;99.90;;;;;;5013698;28;20618;-82
2021/09/06 09:39:16;;;;;;;28.17;16.67;;;24.10;99.90;;;;;;5015010;28;20279;-87
2021/09/06 09:41:44;;;;;;;25.05;15.63;;;24.10;99.90;;;;;;5015294;28;20207;-84
2021/09/06 09:44:22;;;;;;;23.13;15.93;;;24.00;99.90;;;;;;5014947;28;20161;-85
2021/09/06 09:47:00;;;;;;;28.95;14.63;;;23.90;99.90;;;;;;5015335;28;20176;-82
2021/09/06 09:49:28;;;;;;;33.10;14.50;;;23.70;99.90;;;;;;5011775;28;20192;-83
2021/09/06 09:51:54;;;;;;;21.75;14.95;;;23.70;99.90;;;;;;5011868;28;20176;-83
2021/09/06 09:54:20;;;;;;;24.95;13.90;;;23.70;99.90;;;;;;5014670;28;20516;-81
2021/09/06 09:56:47;;;;;;;19.80;14.45;;;23.80;99.90;;;;;;5012070;28;20179;-81
2021/09/06 09:59:14;;;;;;;23.65;14.35;;;23.80;99.90;;;;;;5011950;28;20235;-81
2021/09/06 10:01:45;;;;;;;23.60;15.15;;;24.00;99.90;;;;;;5012533;28;20212;-81
2021/09/06 10:04:14;;;;;;;21.95;12.35;;;24.00;99.90;;;;;;5013040;28;20187;-82
2021/09/06 10:06:41;;;;;;;16.83;12.27;;;24.10;99.90;;;;;;5014157;28;20255;-82
2021/09/06 10:09:07;;;;;;;27.98;11.80;;;24.10;99.90;;;;;;5012310;28;20181;-83
2021/09/06 10:11:34;;;;;;;18.90;10.45;;;24.30;99.90;;;;;;5014115;28;20187;-83
2021/09/06 10:14:18;;;;;;;11.48;10.05;;;24.40;99.90;;;;;;5013120;28;20192;-82
2021/09/06 10:16:46;;;;;;;20.15;11.35;;;24.50;99.90;;;;;;5011901;28;20176;-84
2021/09/06 10:19:12;;;;;;;24.42;12.23;;;24.70;99.90;;;;;;5010744;28;20200;-81
2021/09/06 10:21:51;;;;;;;15.77;11.25;;;24.70;99.90;;;;;;5012370;28;20645;-81
2021/09/06 10:24:19;;;;;;;18.05;12.20;;;24.60;99.90;;;;;;5012360;28;20595;-82
2021/09/06 10:26:46;;;;;;;19.17;11.30;;;24.60;99.90;;;;;;5010816;28;20531;-81
2021/09/06 10:29:19;;;;;;;16.25;12.63;;;24.80;99.90;;;;;;5009276;28;20196;-82
2021/09/06 10:31:58;;;;;;;29.33;13.18;;;25.00;99.90;;;;;;5011864;28;20291;-82
2021/09/06 10:34:23;;;;;;;20.98;13.48;;;24.90;99.90;;;;;;5013028;28;20176;-83
2021/09/06 10:36:56;;;;;;;18.70;13.80;;;24.90;99.90;;;;;;5013458;28;20171;-84
2021/09/06 10:39:22;;;;;;;25.10;13.20;;;24.70;99.90;;;;;;5013242;28;20661;-83
2021/09/06 10:41:49;;;;;;;19.60;13.82;;;24.50;99.90;;;;;;5013484;28;20219;-86
2021/09/06 10:44:18;;;;;;;22.20;12.43;;;24.60;99.90;;;;;;5014431;28;20172;-84
2021/09/06 10:47:11;;;;;;;21.02;11.55;;;24.70;99.90;;;;;;5014855;28;20211;-85
2021/09/06 10:49:43;;;;;;;19.52;12.52;;;24.90;99.90;;;;;;5005342;28;20263;-83
2021/09/06 10:52:10;;;;;;;14.10;11.02;;;25.10;99.90;;;;;;5013191;28;20670;-83
2021/09/06 10:54:38;;;;;;;15.80;11.63;;;25.20;99.90;;;;;;5013311;28;20663;-86
2021/09/06 10:57:05;;;;;;;24.77;11.27;;;25.30;99.90;;;;;;5012871;28;20173;-88
2021/09/06 10:59:31;;;;;;;17.52;11.48;;;25.30;99.90;;;;;;5012545;28;20185;-86
2021/09/06 11:01:58;;;;;;;15.05;11.15;;;25.30;99.90;;;;;;5014805;28;20207;-87
2021/09/06 11:04:27;;;;;;;21.02;12.50;;;25.30;99.90;;;;;;5013771;28;20180;-84
2021/09/06 11:07:00;;;;;;;17.25;10.80;;;25.20;99.90;;;;;;5013745;28;20527;-81
2021/09/06 11:09:28;;;;;;;21.63;12.15;;;25.40;99.90;;;;;;5011951;28;20192;-82
2021/09/06 11:12:09;;;;;;;23.45;11.23;;;25.40;99.90;;;;;;5013446;28;20169;-83
2021/09/06 11:14:40;;;;;;;13.63;11.07;;;25.40;99.90;;;;;;5015531;28;20251;-87
2021/09/06 11:17:23;;;;;;;13.90;10.95;;;25.40;99.90;;;;;;5013358;28;20168;-85
2021/09/06 11:19:51;;;;;;;19.95;11.95;;;25.50;99.90;;;;;;5013416;28;20283;-84
2021/09/06 11:22:18;;;;;;;26.40;10.32;;;25.40;99.90;;;;;;5013495;28;20239;-84
2021/09/06 11:24:45;;;;;;;14.65;11.18;;;25.50;99.90;;;;;;5012874;28;20169;-85
2021/09/06 11:27:36;;;;;;;20.52;11.18;;;25.40;99.90;;;;;;5012403;28;20215;-82
2021/09/06 11:30:03;;;;;;;16.38;10.07;;;25.60;99.90;;;;;;5013883;28;20171;-82
2021/09/06 11:32:29;;;;;;;14.32;10.30;;;25.60;99.90;;;;;;5012303;28;20537;-84
2021/09/06 11:35:07;;;;;;;16.08;9.98;;;25.70;99.90;;;;;;5014027;28;20165;-84
2021/09/06 11:37:34;;;;;;;15.45;10.27;;;25.70;99.90;;;;;;5012985;28;20207;-85
2021/09/06 11:40:00;;;;;;;12.02;9.13;;;25.70;99.90;;;;;;5013328;28;20164;-87
2021/09/06 11:42:27;;;;;;;15.30;9.55;;;25.60;99.90;;;;;;5012454;28;20223;-86
2021/09/06 11:44:54;;;;;;;12.88;10.05;;;25.50;99.90;;;;;;5013744;28;20161;-86
2021/09/06 11:47:22;;;;;;;16.92;9.60;;;25.60;99.90;;;;;;5011905;28;20199;-82
2021/09/06 11:49:56;;;;;;;14.27;10.23;;;25.60;99.90;;;;;;5011918;28;20173;-82
2021/09/06 11:52:33;;;;;;;15.70;10.98;;;25.80;99.90;;;;;;5013080;28;20187;-81
2021/09/06 11:54:59;;;;;;;29.38;11.10;;;25.60;99.90;;;;;;5011513;28;20254;-81
2021/09/06 11:57:27;;;;;;;17.58;10.05;;;25.60;99.90;;;;;;5012884;28;20219;-79
2021/09/06 11:59:54;;;;;;;18.42;10.85;;;25.70;99.90;;;;;;5011433;28;20172;-82
2021/09/06 12:02:21;;;;;;;20.17;11.88;;;25.60;99.90;;;;;;5011226;28;20223;-82
2021/09/06 12:04:47;;;;;;;17.05;9.88;;;25.60;99.90;;;;;;5011737;28;20176;-92
2021/09/06 12:07:17;;;;;;;12.35;9.77;;;25.80;99.90;;;;;;5011455;28;20172;-82
2021/09/06 12:09:43;;;;;;;16.98;11.27;;;25.70;99.90;;;;;;5012789;28;20223;-83
2021/09/06 12:12:22;;;;;;;14.48;9.10;;;25.70;99.90;;;;;;5011557;28;20169;-82
2021/09/06 12:14:51;;;;;;;13.75;9.68;;;25.70;99.90;;;;;;5012740;28;20644;-82
2021/09/06 12:17:17;;;;;;;21.58;10.63;;;25.80;99.90;;;;;;5011704;28;20172;-82
2021/09/06 12:19:48;;;;;;;14.48;9.60;;;25.90;99.90;;;;;;5011192;28;20181;-82
2021/09/06 12:22:21;;;;;;;24.25;11.35;;;25.70;99.90;;;;;;5012655;28;20204;-82
2021/09/06 12:24:49;;;;;;;21.50;9.75;;;26.00;99.90;;;;;;5011301;28;20549;-80
2021/09/06 12:27:20;;;;;;;24.05;10.38;;;26.10;99.90;;;;;;5012871;28;20263;-80